Olah — J8Y3743 — position and weather

sailwx.info

Track history (hours):
 
Tides and Currents Weather Stations Pressure Air Temp Water Temp Dewpoint Dewpoint Depression Visibility Wind Speed Wind Dir Waves Ship Positions

Olah

Last reported at 2014-Aug-26 19:07 UTC. Time now 2014-Aug-29 20:23 UTC.
Position N 43°34' E 007°05'.

Length 47 m; draft 3.5 m.

Type: Pleasure craft. MMSI: 375275000.

Date/timePositionNaut miles runAvg speedWind from/ knotsBaromVisibWave heightAir tempDewpointWater temp
2014-Aug-26 19:07N 43°34' E 007°05'3 6.3
2014-Aug-26 18:34N 43°30' E 007°05'1515.2
2014-Aug-26 17:33N 43°20' E 006°50'10 9.0
2014-Aug-26 16:30N 43°13' E 006°40'0 0.0
2014-Aug-26 15:33N 43°13' E 006°40'0 0.0
2014-Aug-26 14:29N 43°13' E 006°40'0 0.0
2014-Aug-26 13:34N 43°13' E 006°40'4 0.2
2014-Aug-25 16:33N 43°16' E 006°38'4 4.1
2014-Aug-25 15:33N 43°15' E 006°43'3 3.0
2014-Aug-25 14:33N 43°13' E 006°40'3 2.0
2014-Aug-25 13:18N 43°11' E 006°39'0 0.0
2014-Aug-25 12:32N 43°11' E 006°39'0 0.0
2014-Aug-25 11:34N 43°11' E 006°39'0 0.0
2014-Aug-25 10:11N 43°11' E 006°39'3 4.5
2014-Aug-25 09:34N 43°12' E 006°42'5 0.3
2014-Aug-24 18:21N 43°16' E 006°38'0 0.5
2014-Aug-24 17:33N 43°17' E 006°38'4 3.1
2014-Aug-24 16:24N 43°13' E 006°40'0 0.0
2014-Aug-24 15:32N 43°13' E 006°40'0 0.0
2014-Aug-24 14:33N 43°13' E 006°40'25 0.7
2014-Aug-23 02:26N 43°32' E 007°02'0 0.0
2014-Aug-23 01:30N 43°32' E 007°02'0 0.0
2014-Aug-23 00:24N 43°32' E 007°02'0 0.0
2014-Aug-22 23:29N 43°32' E 007°02'0 0.0
2014-Aug-22 22:20N 43°32' E 007°02'0 0.0
2014-Aug-22 21:25N 43°32' E 007°02'0 0.0
2014-Aug-22 20:21N 43°32' E 007°02'0 0.0
2014-Aug-22 19:32N 43°32' E 007°02'0 0.0
2014-Aug-22 18:23N 43°32' E 007°02'0 0.0
2014-Aug-22 17:26N 43°32' E 007°02'0 0.0
2014-Aug-22 16:29N 43°32' E 007°02'0 0.0
2014-Aug-22 15:32N 43°32' E 007°02'0 0.0
2014-Aug-22 14:29N 43°32' E 007°02'0 0.0
2014-Aug-22 13:33N 43°32' E 007°02'9 8.9
2014-Aug-22 12:33N 43°25' E 006°54'1514.7
2014-Aug-22 11:34N 43°17' E 006°38'0 0.0
2014-Aug-20 17:33N 43°17' E 006°38'4 3.8
2014-Aug-20 16:33N 43°13' E 006°41'0 0.0
2014-Aug-20 15:34N 43°13' E 006°41'0 0.0
2014-Aug-20 14:33N 43°13' E 006°41'7 7.3
2014-Aug-20 13:33N 43°19' E 006°47'1514.9
2014-Aug-20 12:33N 43°30' E 006°60'2 2.4
2014-Aug-20 11:33N 43°33' E 007°01'  
Track history (hours):
 
Tides and Currents Weather Stations Pressure Air Temp Water Temp Dewpoint Dewpoint Depression Visibility Wind Speed Wind Dir Waves Ship Positions

Olah

Last reported at 2014-Aug-26 19:07 UTC. Time now 2014-Aug-29 20:23 UTC.
Position N 43°34' E 007°05'.

Length 47 m; draft 3.5 m.

Type: Pleasure craft. MMSI: 375275000.

Date/timePositionNaut miles runAvg speedWind from/ knotsBaromVisibWave heightAir tempDewpointWater temp
2014-Aug-26 19:07N 43°34' E 007°05'3 6.3
2014-Aug-26 18:34N 43°30' E 007°05'1515.2
2014-Aug-26 17:33N 43°20' E 006°50'10 9.0
2014-Aug-26 16:30N 43°13' E 006°40'0 0.0
2014-Aug-26 15:33N 43°13' E 006°40'0 0.0
2014-Aug-26 14:29N 43°13' E 006°40'0 0.0
2014-Aug-26 13:34N 43°13' E 006°40'4 0.2
2014-Aug-25 16:33N 43°16' E 006°38'4 4.1
2014-Aug-25 15:33N 43°15' E 006°43'3 3.0
2014-Aug-25 14:33N 43°13' E 006°40'3 2.0
2014-Aug-25 13:18N 43°11' E 006°39'0 0.0
2014-Aug-25 12:32N 43°11' E 006°39'0 0.0
2014-Aug-25 11:34N 43°11' E 006°39'0 0.0
2014-Aug-25 10:11N 43°11' E 006°39'3 4.5
2014-Aug-25 09:34N 43°12' E 006°42'5 0.3
2014-Aug-24 18:21N 43°16' E 006°38'0 0.5
2014-Aug-24 17:33N 43°17' E 006°38'4 3.1
2014-Aug-24 16:24N 43°13' E 006°40'0 0.0
2014-Aug-24 15:32N 43°13' E 006°40'0 0.0
2014-Aug-24 14:33N 43°13' E 006°40'25 0.7
2014-Aug-23 02:26N 43°32' E 007°02'0 0.0
2014-Aug-23 01:30N 43°32' E 007°02'0 0.0
2014-Aug-23 00:24N 43°32' E 007°02'0 0.0
2014-Aug-22 23:29N 43°32' E 007°02'0 0.0
2014-Aug-22 22:20N 43°32' E 007°02'0 0.0
2014-Aug-22 21:25N 43°32' E 007°02'0 0.0
2014-Aug-22 20:21N 43°32' E 007°02'0 0.0
2014-Aug-22 19:32N 43°32' E 007°02'0 0.0
2014-Aug-22 18:23N 43°32' E 007°02'0 0.0
2014-Aug-22 17:26N 43°32' E 007°02'0 0.0
2014-Aug-22 16:29N 43°32' E 007°02'0 0.0
2014-Aug-22 15:32N 43°32' E 007°02'0 0.0
2014-Aug-22 14:29N 43°32' E 007°02'0 0.0
2014-Aug-22 13:33N 43°32' E 007°02'9 8.9
2014-Aug-22 12:33N 43°25' E 006°54'1514.7
2014-Aug-22 11:34N 43°17' E 006°38'0 0.0
2014-Aug-20 17:33N 43°17' E 006°38'4 3.8
2014-Aug-20 16:33N 43°13' E 006°41'0 0.0
2014-Aug-20 15:34N 43°13' E 006°41'0 0.0
2014-Aug-20 14:33N 43°13' E 006°41'7 7.3
2014-Aug-20 13:33N 43°19' E 006°47'1514.9
2014-Aug-20 12:33N 43°30' E 006°60'2 2.4
2014-Aug-20 11:33N 43°33' E 007°01'  

Dump ship's entire track history